sensor_id;sensor_type;location;lat;lon;timestamp;temperature;humidity
19359;DHT22;9815;52.334;20.890;2022-12-07T00:01:43;1.10;99.90
19359;DHT22;9815;52.334;20.890;2022-12-07T00:04:14;1.10;99.90
19359;DHT22;9815;52.334;20.890;2022-12-07T00:06:45;1.10;99.90
19359;DHT22;9815;52.334;20.890;2022-12-07T00:09:16;1.10;99.90
19359;DHT22;9815;52.334;20.890;2022-12-07T00:11:44;1.20;99.90
19359;DHT22;9815;52.334;20.890;2022-12-07T00:14:16;1.10;99.90
19359;DHT22;9815;52.334;20.890;2022-12-07T00:16:44;1.20;99.90
19359;DHT22;9815;52.334;20.890;2022-12-07T00:19:13;1.10;99.90
19359;DHT22;9815;52.334;20.890;2022-12-07T00:21:41;1.20;99.90
19359;DHT22;9815;52.334;20.890;2022-12-07T00:24:11;1.20;99.90
19359;DHT22;9815;52.334;20.890;2022-12-07T00:26:40;1.10;99.90
19359;DHT22;9815;52.334;20.890;2022-12-07T00:29:13;1.20;99.90
19359;DHT22;9815;52.334;20.890;2022-12-07T00:31:42;1.20;99.90
19359;DHT22;9815;52.334;20.890;2022-12-07T00:34:13;1.20;99.90
19359;DHT22;9815;52.334;20.890;2022-12-07T00:36:41;1.20;99.90
19359;DHT22;9815;52.334;20.890;2022-12-07T00:39:10;1.20;99.90
19359;DHT22;9815;52.334;20.890;2022-12-07T00:41:38;1.20;99.90
19359;DHT22;9815;52.334;20.890;2022-12-07T00:44:06;1.20;99.90
19359;DHT22;9815;52.334;20.890;2022-12-07T00:46:34;1.20;99.90
19359;DHT22;9815;52.334;20.890;2022-12-07T00:49:03;1.20;99.90
19359;DHT22;9815;52.334;20.890;2022-12-07T00:51:31;1.20;99.90
19359;DHT22;9815;52.334;20.890;2022-12-07T00:53:59;1.30;99.90
19359;DHT22;9815;52.334;20.890;2022-12-07T00:56:29;1.20;99.90
19359;DHT22;9815;52.334;20.890;2022-12-07T00:58:58;1.20;99.90
19359;DHT22;9815;52.334;20.890;2022-12-07T01:01:28;1.30;99.90
19359;DHT22;9815;52.334;20.890;2022-12-07T01:03:56;1.30;99.90
19359;DHT22;9815;52.334;20.890;2022-12-07T01:06:25;1.30;99.90
19359;DHT22;9815;52.334;20.890;2022-12-07T01:08:53;1.20;99.90
19359;DHT22;9815;52.334;20.890;2022-12-07T01:11:23;1.30;99.90
19359;DHT22;9815;52.334;20.890;2022-12-07T01:13:53;1.30;99.90
19359;DHT22;9815;52.334;20.890;2022-12-07T01:16:23;1.30;99.90
19359;DHT22;9815;52.334;20.890;2022-12-07T01:18:53;1.30;99.90
19359;DHT22;9815;52.334;20.890;2022-12-07T01:21:24;1.40;99.90
19359;DHT22;9815;52.334;20.890;2022-12-07T01:23:53;1.40;99.90
19359;DHT22;9815;52.334;20.890;2022-12-07T01:26:23;1.40;99.90
19359;DHT22;9815;52.334;20.890;2022-12-07T01:28:52;1.40;99.90
19359;DHT22;9815;52.334;20.890;2022-12-07T01:31:23;1.40;99.90
19359;DHT22;9815;52.334;20.890;2022-12-07T01:33:54;1.40;99.90
19359;DHT22;9815;52.334;20.890;2022-12-07T01:36:24;1.50;99.90
19359;DHT22;9815;52.334;20.890;2022-12-07T01:38:55;1.50;99.90
19359;DHT22;9815;52.334;20.890;2022-12-07T01:41:24;1.50;99.90
19359;DHT22;9815;52.334;20.890;2022-12-07T01:44:17;1.50;99.90
19359;DHT22;9815;52.334;20.890;2022-12-07T01:46:47;1.50;99.90
19359;DHT22;9815;52.334;20.890;2022-12-07T01:49:20;1.50;99.90
19359;DHT22;9815;52.334;20.890;2022-12-07T01:51:51;1.50;99.90
19359;DHT22;9815;52.334;20.890;2022-12-07T01:54:21;1.50;99.90
19359;DHT22;9815;52.334;20.890;2022-12-07T01:56:52;1.50;99.90
19359;DHT22;9815;52.334;20.890;2022-12-07T01:59:24;1.50;99.90
19359;DHT22;9815;52.334;20.890;2022-12-07T02:01:54;1.50;99.90
19359;DHT22;9815;52.334;20.890;2022-12-07T02:04:23;1.50;99.90
19359;DHT22;9815;52.334;20.890;2022-12-07T02:06:54;1.60;99.90
19359;DHT22;9815;52.334;20.890;2022-12-07T02:09:22;1.60;99.90
19359;DHT22;9815;52.334;20.890;2022-12-07T02:11:51;1.60;99.90
19359;DHT22;9815;52.334;20.890;2022-12-07T02:14:21;1.60;99.90
19359;DHT22;9815;52.334;20.890;2022-12-07T02:16:58;1.60;99.90
19359;DHT22;9815;52.334;20.890;2022-12-07T02:20:00;1.60;99.90
19359;DHT22;9815;52.334;20.890;2022-12-07T02:22:48;1.60;99.90
19359;DHT22;9815;52.334;20.890;2022-12-07T02:25:32;1.60;99.90
19359;DHT22;9815;52.334;20.890;2022-12-07T02:28:06;1.60;99.90
19359;DHT22;9815;52.334;20.890;2022-12-07T02:30:42;1.60;99.90
19359;DHT22;9815;52.334;20.890;2022-12-07T02:33:15;1.60;99.90
19359;DHT22;9815;52.334;20.890;2022-12-07T02:35:48;1.60;99.90
19359;DHT22;9815;52.334;20.890;2022-12-07T02:38:21;1.60;99.90
19359;DHT22;9815;52.334;20.890;2022-12-07T02:40:55;1.50;99.90
19359;DHT22;9815;52.334;20.890;2022-12-07T02:43:27;1.60;99.90
19359;DHT22;9815;52.334;20.890;2022-12-07T02:46:02;1.60;99.90
19359;DHT22;9815;52.334;20.890;2022-12-07T02:48:33;1.60;99.90
19359;DHT22;9815;52.334;20.890;2022-12-07T02:51:01;1.60;99.90
19359;DHT22;9815;52.334;20.890;2022-12-07T02:53:31;1.60;99.90
19359;DHT22;9815;52.334;20.890;2022-12-07T02:56:03;1.60;99.90
19359;DHT22;9815;52.334;20.890;2022-12-07T02:58:43;1.60;99.90
19359;DHT22;9815;52.334;20.890;2022-12-07T03:01:24;1.60;99.90
19359;DHT22;9815;52.334;20.890;2022-12-07T03:04:02;1.60;99.90
19359;DHT22;9815;52.334;20.890;2022-12-07T03:06:42;1.60;99.90
19359;DHT22;9815;52.334;20.890;2022-12-07T03:09:14;1.60;99.90
19359;DHT22;9815;52.334;20.890;2022-12-07T03:11:51;1.60;99.90
19359;DHT22;9815;52.334;20.890;2022-12-07T03:14:25;1.60;99.90
19359;DHT22;9815;52.334;20.890;2022-12-07T03:17:02;1.70;99.90
19359;DHT22;9815;52.334;20.890;2022-12-07T03:19:35;1.70;99.90
19359;DHT22;9815;52.334;20.890;2022-12-07T03:22:07;1.70;99.90
19359;DHT22;9815;52.334;20.890;2022-12-07T03:24:40;1.70;99.90
19359;DHT22;9815;52.334;20.890;2022-12-07T03:27:13;1.70;99.90
19359;DHT22;9815;52.334;20.890;2022-12-07T03:29:48;1.70;99.90
19359;DHT22;9815;52.334;20.890;2022-12-07T03:32:21;1.70;99.90
19359;DHT22;9815;52.334;20.890;2022-12-07T03:34:56;1.70;99.90
19359;DHT22;9815;52.334;20.890;2022-12-07T03:37:30;1.70;99.90
19359;DHT22;9815;52.334;20.890;2022-12-07T03:40:03;1.70;99.90
19359;DHT22;9815;52.334;20.890;2022-12-07T03:42:35;1.70;99.90
19359;DHT22;9815;52.334;20.890;2022-12-07T03:45:04;1.70;99.90
19359;DHT22;9815;52.334;20.890;2022-12-07T03:47:39;1.70;99.90
19359;DHT22;9815;52.334;20.890;2022-12-07T03:50:13;1.70;99.90
19359;DHT22;9815;52.334;20.890;2022-12-07T03:52:47;1.70;99.90
19359;DHT22;9815;52.334;20.890;2022-12-07T03:55:20;1.70;99.90
19359;DHT22;9815;52.334;20.890;2022-12-07T03:57:53;1.70;99.90
19359;DHT22;9815;52.334;20.890;2022-12-07T04:00:22;1.70;99.90
19359;DHT22;9815;52.334;20.890;2022-12-07T04:02:53;1.70;99.90
19359;DHT22;9815;52.334;20.890;2022-12-07T04:05:21;1.70;99.90
19359;DHT22;9815;52.334;20.890;2022-12-07T04:07:50;1.70;99.90
19359;DHT22;9815;52.334;20.890;2022-12-07T04:10:18;1.70;99.90
19359;DHT22;9815;52.334;20.890;2022-12-07T04:12:46;1.80;99.90
19359;DHT22;9815;52.334;20.890;2022-12-07T04:15:15;1.80;99.90
19359;DHT22;9815;52.334;20.890;2022-12-07T04:17:43;1.70;99.90
19359;DHT22;9815;52.334;20.890;2022-12-07T04:20:13;1.70;99.90
19359;DHT22;9815;52.334;20.890;2022-12-07T04:22:41;1.70;99.90
19359;DHT22;9815;52.334;20.890;2022-12-07T04:25:09;1.70;99.90
19359;DHT22;9815;52.334;20.890;2022-12-07T04:27:37;1.70;99.90
19359;DHT22;9815;52.334;20.890;2022-12-07T04:30:06;1.70;99.90
19359;DHT22;9815;52.334;20.890;2022-12-07T04:32:35;1.70;99.90
19359;DHT22;9815;52.334;20.890;2022-12-07T04:35:04;1.70;99.90
19359;DHT22;9815;52.334;20.890;2022-12-07T04:37:34;1.60;99.90
19359;DHT22;9815;52.334;20.890;2022-12-07T04:40:03;1.60;99.90
19359;DHT22;9815;52.334;20.890;2022-12-07T05:00:23;1.60;99.90
19359;DHT22;9815;52.334;20.890;2022-12-07T05:02:51;1.60;99.90
19359;DHT22;9815;52.334;20.890;2022-12-07T05:05:19;1.60;99.90
19359;DHT22;9815;52.334;20.890;2022-12-07T05:07:47;1.50;99.90
19359;DHT22;9815;52.334;20.890;2022-12-07T05:10:16;1.50;99.90
19359;DHT22;9815;52.334;20.890;2022-12-07T05:12:44;1.50;99.90
19359;DHT22;9815;52.334;20.890;2022-12-07T05:15:12;1.60;99.90
19359;DHT22;9815;52.334;20.890;2022-12-07T05:17:42;1.50;99.90
19359;DHT22;9815;52.334;20.890;2022-12-07T05:20:11;1.50;99.90
19359;DHT22;9815;52.334;20.890;2022-12-07T05:22:39;1.60;99.90
19359;DHT22;9815;52.334;20.890;2022-12-07T05:25:08;1.60;99.90
19359;DHT22;9815;52.334;20.890;2022-12-07T05:27:36;1.60;99.90
19359;DHT22;9815;52.334;20.890;2022-12-07T05:30:05;1.50;99.90
19359;DHT22;9815;52.334;20.890;2022-12-07T05:32:34;1.50;99.90
19359;DHT22;9815;52.334;20.890;2022-12-07T05:35:05;1.50;99.90
19359;DHT22;9815;52.334;20.890;2022-12-07T05:37:33;1.50;99.90
19359;DHT22;9815;52.334;20.890;2022-12-07T05:40:01;1.50;99.90
19359;DHT22;9815;52.334;20.890;2022-12-07T05:42:30;1.40;99.90
19359;DHT22;9815;52.334;20.890;2022-12-07T05:44:58;1.40;99.90
19359;DHT22;9815;52.334;20.890;2022-12-07T05:47:26;1.40;99.90
19359;DHT22;9815;52.334;20.890;2022-12-07T05:49:54;1.40;99.90
19359;DHT22;9815;52.334;20.890;2022-12-07T05:52:23;1.40;99.90
19359;DHT22;9815;52.334;20.890;2022-12-07T05:54:52;1.30;99.90
19359;DHT22;9815;52.334;20.890;2022-12-07T05:57:20;1.30;99.90
19359;DHT22;9815;52.334;20.890;2022-12-07T05:59:49;1.30;99.90
19359;DHT22;9815;52.334;20.890;2022-12-07T06:02:16;1.30;99.90
19359;DHT22;9815;52.334;20.890;2022-12-07T06:04:46;1.20;99.90
19359;DHT22;9815;52.334;20.890;2022-12-07T06:07:15;1.20;99.90
19359;DHT22;9815;52.334;20.890;2022-12-07T06:09:45;1.20;99.90
19359;DHT22;9815;52.334;20.890;2022-12-07T06:12:14;1.20;99.90
19359;DHT22;9815;52.334;20.890;2022-12-07T06:15:00;1.20;99.90
19359;DHT22;9815;52.334;20.890;2022-12-07T06:17:28;1.20;99.90
19359;DHT22;9815;52.334;20.890;2022-12-07T06:19:56;1.20;99.90
19359;DHT22;9815;52.334;20.890;2022-12-07T06:22:26;1.10;99.90
19359;DHT22;9815;52.334;20.890;2022-12-07T06:24:55;1.10;99.90
19359;DHT22;9815;52.334;20.890;2022-12-07T06:27:23;1.10;99.90
19359;DHT22;9815;52.334;20.890;2022-12-07T06:29:51;1.10;99.90
19359;DHT22;9815;52.334;20.890;2022-12-07T06:32:19;1.10;99.90
19359;DHT22;9815;52.334;20.890;2022-12-07T06:34:47;1.10;99.90
19359;DHT22;9815;52.334;20.890;2022-12-07T06:37:15;1.00;99.90
19359;DHT22;9815;52.334;20.890;2022-12-07T06:39:43;1.00;99.90
19359;DHT22;9815;52.334;20.890;2022-12-07T06:42:13;1.00;99.90
19359;DHT22;9815;52.334;20.890;2022-12-07T06:44:41;1.00;99.90
19359;DHT22;9815;52.334;20.890;2022-12-07T06:47:09;1.00;99.90
19359;DHT22;9815;52.334;20.890;2022-12-07T06:49:58;1.00;99.90
19359;DHT22;9815;52.334;20.890;2022-12-07T06:52:26;1.00;99.90
19359;DHT22;9815;52.334;20.890;2022-12-07T06:54:55;1.00;99.90
19359;DHT22;9815;52.334;20.890;2022-12-07T06:57:24;1.00;99.90
19359;DHT22;9815;52.334;20.890;2022-12-07T06:59:52;1.00;99.90
19359;DHT22;9815;52.334;20.890;2022-12-07T07:02:20;1.00;99.90
19359;DHT22;9815;52.334;20.890;2022-12-07T07:04:48;1.00;99.90
19359;DHT22;9815;52.334;20.890;2022-12-07T07:07:16;1.00;99.90
19359;DHT22;9815;52.334;20.890;2022-12-07T07:09:44;1.00;99.90
19359;DHT22;9815;52.334;20.890;2022-12-07T07:12:12;1.00;99.90
19359;DHT22;9815;52.334;20.890;2022-12-07T07:14:42;1.00;99.90
19359;DHT22;9815;52.334;20.890;2022-12-07T07:17:10;1.00;99.90
19359;DHT22;9815;52.334;20.890;2022-12-07T07:19:38;1.00;99.90
19359;DHT22;9815;52.334;20.890;2022-12-07T07:22:06;1.00;99.90
19359;DHT22;9815;52.334;20.890;2022-12-07T07:24:34;1.10;99.90
19359;DHT22;9815;52.334;20.890;2022-12-07T07:27:02;1.10;99.90
19359;DHT22;9815;52.334;20.890;2022-12-07T07:29:30;1.10;99.90
19359;DHT22;9815;52.334;20.890;2022-12-07T07:32:01;1.10;99.90
19359;DHT22;9815;52.334;20.890;2022-12-07T07:34:32;1.00;99.90
19359;DHT22;9815;52.334;20.890;2022-12-07T07:37:01;1.10;99.90
19359;DHT22;9815;52.334;20.890;2022-12-07T07:39:29;1.10;99.90
19359;DHT22;9815;52.334;20.890;2022-12-07T07:41:57;1.10;99.90
19359;DHT22;9815;52.334;20.890;2022-12-07T07:44:26;1.10;99.90
19359;DHT22;9815;52.334;20.890;2022-12-07T07:47:02;1.10;99.90
19359;DHT22;9815;52.334;20.890;2022-12-07T07:49:30;1.20;99.90
19359;DHT22;9815;52.334;20.890;2022-12-07T07:51:58;1.20;99.90
19359;DHT22;9815;52.334;20.890;2022-12-07T07:54:26;1.20;99.90
19359;DHT22;9815;52.334;20.890;2022-12-07T07:56:54;1.20;99.90
19359;DHT22;9815;52.334;20.890;2022-12-07T07:59:22;1.20;99.90
19359;DHT22;9815;52.334;20.890;2022-12-07T08:01:51;1.20;99.90
19359;DHT22;9815;52.334;20.890;2022-12-07T08:04:20;1.20;99.90
19359;DHT22;9815;52.334;20.890;2022-12-07T08:06:48;1.20;99.90
19359;DHT22;9815;52.334;20.890;2022-12-07T08:09:16;1.20;99.90
19359;DHT22;9815;52.334;20.890;2022-12-07T08:11:44;1.20;99.90
19359;DHT22;9815;52.334;20.890;2022-12-07T08:14:13;1.30;99.90
19359;DHT22;9815;52.334;20.890;2022-12-07T08:16:41;1.20;99.90
19359;DHT22;9815;52.334;20.890;2022-12-07T08:19:08;1.30;99.90
19359;DHT22;9815;52.334;20.890;2022-12-07T08:21:38;1.30;99.90
19359;DHT22;9815;52.334;20.890;2022-12-07T08:24:06;1.40;99.90
19359;DHT22;9815;52.334;20.890;2022-12-07T08:26:34;1.30;99.90
19359;DHT22;9815;52.334;20.890;2022-12-07T08:29:02;1.40;99.90
19359;DHT22;9815;52.334;20.890;2022-12-07T08:31:30;1.40;99.90
19359;DHT22;9815;52.334;20.890;2022-12-07T08:33:59;1.40;99.90
19359;DHT22;9815;52.334;20.890;2022-12-07T08:36:27;1.50;99.90
19359;DHT22;9815;52.334;20.890;2022-12-07T08:38:57;1.50;99.90
19359;DHT22;9815;52.334;20.890;2022-12-07T08:41:45;1.50;99.90
19359;DHT22;9815;52.334;20.890;2022-12-07T08:44:13;1.50;99.90
19359;DHT22;9815;52.334;20.890;2022-12-07T08:46:45;1.60;99.90
19359;DHT22;9815;52.334;20.890;2022-12-07T08:49:17;1.60;99.90
19359;DHT22;9815;52.334;20.890;2022-12-07T08:51:46;1.60;99.90
19359;DHT22;9815;52.334;20.890;2022-12-07T08:54:17;1.70;99.90
19359;DHT22;9815;52.334;20.890;2022-12-07T08:56:48;1.70;99.90
19359;DHT22;9815;52.334;20.890;2022-12-07T08:59:25;1.80;99.90
19359;DHT22;9815;52.334;20.890;2022-12-07T09:01:54;1.80;99.90
19359;DHT22;9815;52.334;20.890;2022-12-07T09:04:22;1.90;99.90
19359;DHT22;9815;52.334;20.890;2022-12-07T09:06:50;1.90;99.90
19359;DHT22;9815;52.334;20.890;2022-12-07T09:09:19;2.00;99.90
19359;DHT22;9815;52.334;20.890;2022-12-07T09:11:47;2.00;99.90
19359;DHT22;9815;52.334;20.890;2022-12-07T09:14:16;2.00;99.90
19359;DHT22;9815;52.334;20.890;2022-12-07T09:16:44;2.10;99.90
19359;DHT22;9815;52.334;20.890;2022-12-07T09:19:12;2.10;99.90
19359;DHT22;9815;52.334;20.890;2022-12-07T09:21:40;2.10;99.90
19359;DHT22;9815;52.334;20.890;2022-12-07T09:24:08;2.20;99.90
19359;DHT22;9815;52.334;20.890;2022-12-07T09:26:37;2.20;99.90
19359;DHT22;9815;52.334;20.890;2022-12-07T09:29:07;2.20;99.90
19359;DHT22;9815;52.334;20.890;2022-12-07T09:31:36;2.30;99.90
19359;DHT22;9815;52.334;20.890;2022-12-07T09:34:04;2.30;99.90
19359;DHT22;9815;52.334;20.890;2022-12-07T09:36:34;2.30;99.90
19359;DHT22;9815;52.334;20.890;2022-12-07T09:39:02;2.40;99.90
19359;DHT22;9815;52.334;20.890;2022-12-07T09:41:32;2.40;99.90
19359;DHT22;9815;52.334;20.890;2022-12-07T09:44:05;2.40;99.90
19359;DHT22;9815;52.334;20.890;2022-12-07T09:46:36;2.50;99.90
19359;DHT22;9815;52.334;20.890;2022-12-07T09:49:09;2.50;99.90
19359;DHT22;9815;52.334;20.890;2022-12-07T09:51:39;2.50;99.90
19359;DHT22;9815;52.334;20.890;2022-12-07T09:54:08;2.50;99.90
19359;DHT22;9815;52.334;20.890;2022-12-07T09:56:39;2.60;99.90
19359;DHT22;9815;52.334;20.890;2022-12-07T09:59:14;2.60;99.90
19359;DHT22;9815;52.334;20.890;2022-12-07T10:01:46;2.60;99.90
19359;DHT22;9815;52.334;20.890;2022-12-07T10:04:18;2.60;99.90
19359;DHT22;9815;52.334;20.890;2022-12-07T10:06:48;2.60;99.90
19359;DHT22;9815;52.334;20.890;2022-12-07T10:09:20;2.60;99.90
19359;DHT22;9815;52.334;20.890;2022-12-07T10:12:03;2.60;99.90
19359;DHT22;9815;52.334;20.890;2022-12-07T10:14:35;2.60;99.90
19359;DHT22;9815;52.334;20.890;2022-12-07T10:17:31;2.50;99.90
19359;DHT22;9815;52.334;20.890;2022-12-07T10:20:21;2.50;99.90
19359;DHT22;9815;52.334;20.890;2022-12-07T10:22:59;2.60;99.90
19359;DHT22;9815;52.334;20.890;2022-12-07T10:25:30;2.50;99.90
19359;DHT22;9815;52.334;20.890;2022-12-07T10:28:02;2.50;99.90
19359;DHT22;9815;52.334;20.890;2022-12-07T10:30:33;2.50;99.90
19359;DHT22;9815;52.334;20.890;2022-12-07T10:33:31;2.50;99.90
19359;DHT22;9815;52.334;20.890;2022-12-07T10:36:01;2.60;99.90
19359;DHT22;9815;52.334;20.890;2022-12-07T10:38:45;2.60;99.90
19359;DHT22;9815;52.334;20.890;2022-12-07T10:41:14;2.60;99.90
19359;DHT22;9815;52.334;20.890;2022-12-07T10:43:52;2.60;99.90
19359;DHT22;9815;52.334;20.890;2022-12-07T10:46:46;2.60;99.90
19359;DHT22;9815;52.334;20.890;2022-12-07T10:49:40;2.70;99.90
19359;DHT22;9815;52.334;20.890;2022-12-07T10:52:20;2.80;99.90
19359;DHT22;9815;52.334;20.890;2022-12-07T10:55:06;2.90;99.90
19359;DHT22;9815;52.334;20.890;2022-12-07T10:57:46;2.90;99.90
19359;DHT22;9815;52.334;20.890;2022-12-07T11:00:18;3.00;99.90
19359;DHT22;9815;52.334;20.890;2022-12-07T11:03:11;3.10;99.90
19359;DHT22;9815;52.334;20.890;2022-12-07T11:05:49;3.00;99.90
19359;DHT22;9815;52.334;20.890;2022-12-07T11:08:27;3.10;99.90
19359;DHT22;9815;52.334;20.890;2022-12-07T11:11:02;3.10;99.90
19359;DHT22;9815;52.334;20.890;2022-12-07T11:13:39;3.00;99.90
19359;DHT22;9815;52.334;20.890;2022-12-07T11:16:35;3.10;99.90
19359;DHT22;9815;52.334;20.890;2022-12-07T11:19:27;3.00;99.90
19359;DHT22;9815;52.334;20.890;2022-12-07T11:22:00;3.00;99.90
19359;DHT22;9815;52.334;20.890;2022-12-07T11:24:35;3.10;99.90
19359;DHT22;9815;52.334;20.890;2022-12-07T11:27:16;3.10;99.90
19359;DHT22;9815;52.334;20.890;2022-12-07T11:29:57;3.10;99.90
19359;DHT22;9815;52.334;20.890;2022-12-07T11:32:43;3.10;99.90
19359;DHT22;9815;52.334;20.890;2022-12-07T11:35:21;3.10;99.90
19359;DHT22;9815;52.334;20.890;2022-12-07T11:37:51;3.10;99.90
19359;DHT22;9815;52.334;20.890;2022-12-07T11:40:27;3.10;99.90
19359;DHT22;9815;52.334;20.890;2022-12-07T11:42:59;3.10;99.90
19359;DHT22;9815;52.334;20.890;2022-12-07T11:45:32;3.10;99.90
19359;DHT22;9815;52.334;20.890;2022-12-07T11:48:02;3.20;99.90
19359;DHT22;9815;52.334;20.890;2022-12-07T11:50:38;3.30;99.90
19359;DHT22;9815;52.334;20.890;2022-12-07T11:53:17;3.30;99.90
19359;DHT22;9815;52.334;20.890;2022-12-07T11:55:49;3.30;99.90
19359;DHT22;9815;52.334;20.890;2022-12-07T11:58:40;3.30;99.90
19359;DHT22;9815;52.334;20.890;2022-12-07T12:01:26;3.40;99.90
19359;DHT22;9815;52.334;20.890;2022-12-07T12:04:02;3.50;99.90
19359;DHT22;9815;52.334;20.890;2022-12-07T12:06:35;3.60;99.90
19359;DHT22;9815;52.334;20.890;2022-12-07T12:09:09;3.60;99.90
19359;DHT22;9815;52.334;20.890;2022-12-07T12:12:20;3.70;99.90
19359;DHT22;9815;52.334;20.890;2022-12-07T12:15:22;3.70;99.90
19359;DHT22;9815;52.334;20.890;2022-12-07T12:18:07;3.60;99.90
19359;DHT22;9815;52.334;20.890;2022-12-07T12:20:42;3.50;99.90
19359;DHT22;9815;52.334;20.890;2022-12-07T12:23:17;3.50;99.90
19359;DHT22;9815;52.334;20.890;2022-12-07T12:25:48;3.20;99.90
19359;DHT22;9815;52.334;20.890;2022-12-07T12:28:22;3.20;99.90
19359;DHT22;9815;52.334;20.890;2022-12-07T12:31:09;3.10;99.90
19359;DHT22;9815;52.334;20.890;2022-12-07T12:33:43;3.20;99.90
19359;DHT22;9815;52.334;20.890;2022-12-07T12:36:25;3.20;99.90
19359;DHT22;9815;52.334;20.890;2022-12-07T12:39:13;3.30;99.90
19359;DHT22;9815;52.334;20.890;2022-12-07T12:41:56;3.40;99.90
19359;DHT22;9815;52.334;20.890;2022-12-07T12:45:11;3.30;99.90
19359;DHT22;9815;52.334;20.890;2022-12-07T12:48:02;3.20;99.90
19359;DHT22;9815;52.334;20.890;2022-12-07T12:50:32;3.20;99.90
19359;DHT22;9815;52.334;20.890;2022-12-07T12:53:13;3.10;99.90
19359;DHT22;9815;52.334;20.890;2022-12-07T12:56:15;3.10;99.90
19359;DHT22;9815;52.334;20.890;2022-12-07T12:58:48;3.00;99.90
19359;DHT22;9815;52.334;20.890;2022-12-07T13:01:39;3.00;99.90
19359;DHT22;9815;52.334;20.890;2022-12-07T13:07:13;3.00;99.90
19359;DHT22;9815;52.334;20.890;2022-12-07T13:10:02;3.00;99.90
19359;DHT22;9815;52.334;20.890;2022-12-07T13:12:31;3.00;99.90
19359;DHT22;9815;52.334;20.890;2022-12-07T13:14:59;3.00;99.90
19359;DHT22;9815;52.334;20.890;2022-12-07T13:17:55;3.00;99.90
19359;DHT22;9815;52.334;20.890;2022-12-07T13:20:52;2.90;99.90
19359;DHT22;9815;52.334;20.890;2022-12-07T13:23:26;2.90;99.90
19359;DHT22;9815;52.334;20.890;2022-12-07T13:26:17;2.80;99.90
19359;DHT22;9815;52.334;20.890;2022-12-07T13:28:48;2.70;99.90
19359;DHT22;9815;52.334;20.890;2022-12-07T13:31:30;2.70;99.90
19359;DHT22;9815;52.334;20.890;2022-12-07T13:33:59;2.70;99.90
19359;DHT22;9815;52.334;20.890;2022-12-07T13:36:30;2.60;99.90
19359;DHT22;9815;52.334;20.890;2022-12-07T13:39:17;2.60;99.90
19359;DHT22;9815;52.334;20.890;2022-12-07T13:41:50;2.50;99.90
19359;DHT22;9815;52.334;20.890;2022-12-07T13:44:21;2.50;99.90
19359;DHT22;9815;52.334;20.890;2022-12-07T13:46:54;2.50;99.90
19359;DHT22;9815;52.334;20.890;2022-12-07T13:49:27;2.50;99.90
19359;DHT22;9815;52.334;20.890;2022-12-07T13:52:13;2.50;99.90
19359;DHT22;9815;52.334;20.890;2022-12-07T13:54:44;2.50;99.90
19359;DHT22;9815;52.334;20.890;2022-12-07T13:57:13;2.50;99.90
19359;DHT22;9815;52.334;20.890;2022-12-07T13:59:42;2.40;99.90
19359;DHT22;9815;52.334;20.890;2022-12-07T14:02:18;2.40;99.90
19359;DHT22;9815;52.334;20.890;2022-12-07T14:04:49;2.40;99.90
19359;DHT22;9815;52.334;20.890;2022-12-07T14:07:21;2.40;99.90
19359;DHT22;9815;52.334;20.890;2022-12-07T14:09:57;2.30;99.90
19359;DHT22;9815;52.334;20.890;2022-12-07T14:12:28;2.30;99.90
19359;DHT22;9815;52.334;20.890;2022-12-07T14:14:59;2.30;99.90
19359;DHT22;9815;52.334;20.890;2022-12-07T14:17:29;2.20;99.90
19359;DHT22;9815;52.334;20.890;2022-12-07T14:19:57;2.20;99.90
19359;DHT22;9815;52.334;20.890;2022-12-07T14:22:31;2.20;99.90
19359;DHT22;9815;52.334;20.890;2022-12-07T14:25:17;2.20;99.90
19359;DHT22;9815;52.334;20.890;2022-12-07T14:27:52;2.10;99.90
19359;DHT22;9815;52.334;20.890;2022-12-07T14:30:26;2.10;99.90
19359;DHT22;9815;52.334;20.890;2022-12-07T14:32:58;2.00;99.90
19359;DHT22;9815;52.334;20.890;2022-12-07T14:35:28;2.00;99.90
19359;DHT22;9815;52.334;20.890;2022-12-07T14:37:56;2.00;99.90
19359;DHT22;9815;52.334;20.890;2022-12-07T14:40:26;1.90;99.90
19359;DHT22;9815;52.334;20.890;2022-12-07T14:42:57;1.80;99.90
19359;DHT22;9815;52.334;20.890;2022-12-07T14:45:30;1.80;99.90
19359;DHT22;9815;52.334;20.890;2022-12-07T14:47:59;1.70;99.90
19359;DHT22;9815;52.334;20.890;2022-12-07T14:50:50;1.60;99.90
19359;DHT22;9815;52.334;20.890;2022-12-07T14:53:41;1.60;99.90
19359;DHT22;9815;52.334;20.890;2022-12-07T14:56:11;1.50;99.90
19359;DHT22;9815;52.334;20.890;2022-12-07T14:58:40;1.50;99.90
19359;DHT22;9815;52.334;20.890;2022-12-07T15:01:09;1.50;99.90
19359;DHT22;9815;52.334;20.890;2022-12-07T15:03:37;1.40;99.90
19359;DHT22;9815;52.334;20.890;2022-12-07T15:06:06;1.30;99.90
19359;DHT22;9815;52.334;20.890;2022-12-07T15:08:36;1.30;99.90
19359;DHT22;9815;52.334;20.890;2022-12-07T15:11:04;1.30;99.90
19359;DHT22;9815;52.334;20.890;2022-12-07T15:13:32;1.30;99.90
19359;DHT22;9815;52.334;20.890;2022-12-07T15:16:20;1.30;99.90
19359;DHT22;9815;52.334;20.890;2022-12-07T15:19:29;1.30;99.90
19359;DHT22;9815;52.334;20.890;2022-12-07T15:22:01;1.30;99.90
19359;DHT22;9815;52.334;20.890;2022-12-07T15:24:29;1.30;99.90
19359;DHT22;9815;52.334;20.890;2022-12-07T15:27:04;1.30;99.90
19359;DHT22;9815;52.334;20.890;2022-12-07T15:29:34;1.40;99.90
19359;DHT22;9815;52.334;20.890;2022-12-07T15:32:05;1.40;99.90
19359;DHT22;9815;52.334;20.890;2022-12-07T15:34:35;1.30;99.90
19359;DHT22;9815;52.334;20.890;2022-12-07T15:37:07;1.30;99.90
19359;DHT22;9815;52.334;20.890;2022-12-07T15:39:36;1.40;99.90
19359;DHT22;9815;52.334;20.890;2022-12-07T15:42:04;1.40;99.90
19359;DHT22;9815;52.334;20.890;2022-12-07T15:44:34;1.40;99.90
19359;DHT22;9815;52.334;20.890;2022-12-07T15:47:27;1.40;99.90
19359;DHT22;9815;52.334;20.890;2022-12-07T15:49:55;1.40;99.90
19359;DHT22;9815;52.334;20.890;2022-12-07T15:52:24;1.40;99.90
19359;DHT22;9815;52.334;20.890;2022-12-07T15:54:52;1.40;99.90
19359;DHT22;9815;52.334;20.890;2022-12-07T15:57:21;1.50;99.90
19359;DHT22;9815;52.334;20.890;2022-12-07T15:59:52;1.50;99.90
19359;DHT22;9815;52.334;20.890;2022-12-07T16:02:26;1.60;99.90
19359;DHT22;9815;52.334;20.890;2022-12-07T16:05:10;1.60;99.90
19359;DHT22;9815;52.334;20.890;2022-12-07T16:07:40;1.60;99.90
19359;DHT22;9815;52.334;20.890;2022-12-07T16:10:11;1.70;99.90
19359;DHT22;9815;52.334;20.890;2022-12-07T16:12:47;1.70;99.90
19359;DHT22;9815;52.334;20.890;2022-12-07T16:15:16;1.70;99.90
19359;DHT22;9815;52.334;20.890;2022-12-07T16:17:58;1.70;99.90
19359;DHT22;9815;52.334;20.890;2022-12-07T16:20:29;1.70;99.90
19359;DHT22;9815;52.334;20.890;2022-12-07T16:22:57;1.70;99.90
19359;DHT22;9815;52.334;20.890;2022-12-07T16:25:32;1.80;99.90
19359;DHT22;9815;52.334;20.890;2022-12-07T16:28:00;1.80;99.90
19359;DHT22;9815;52.334;20.890;2022-12-07T16:30:39;1.80;99.90
19359;DHT22;9815;52.334;20.890;2022-12-07T16:33:09;1.80;99.90
19359;DHT22;9815;52.334;20.890;2022-12-07T16:35:38;1.80;99.90
19359;DHT22;9815;52.334;20.890;2022-12-07T16:38:22;1.80;99.90
19359;DHT22;9815;52.334;20.890;2022-12-07T16:40:53;1.80;99.90
19359;DHT22;9815;52.334;20.890;2022-12-07T16:43:49;1.80;99.90